KAL751 RKSI-RJTT
Flight info
| Callsign | KAL751 |
|---|---|
| Flight time | 1h 33m |
| Altitude | 39000 |
| Route | EGOBA2E EGOBA Y697 LANAT Y71 XAC |
| Aircraft | B77W/H-SDE1E2E3FGHIJ2J3J4J5M1RWXY/LB1D1 |
Departure
| Time | 2026-05-04 13:19 |
|---|---|
| Airport | Incheon International Airport (RKSI) |
Arrival
| Time | 2026-05-04 14:52 |
|---|---|
| Airport | Tokyo Haneda International Airport (RJTT) |
| Time | Latitude | Longitude | Altitude | Speed | Heading |
|---|---|---|---|---|---|
| 2026-05-04 12:45 | 37.46307 | 126.43462 | 38 ft | 0 kts | 235° |
| 2026-05-04 13:03 | 37.46316 | 126.43477 | 38 ft | 2 kts | 231° |
| 2026-05-04 13:03 | 37.46327 | 126.43493 | 37 ft | 2 kts | 225° |
| 2026-05-04 13:04 | 37.46339 | 126.43507 | 38 ft | 2 kts | 215° |
| 2026-05-04 13:04 | 37.46353 | 126.43518 | 37 ft | 2 kts | 202° |
| 2026-05-04 13:04 | 37.46369 | 126.43523 | 36 ft | 2 kts | 182° |
| 2026-05-04 13:04 | 37.46385 | 126.43522 | 36 ft | 2 kts | 161° |
| 2026-05-04 13:05 | 37.46399 | 126.43514 | 34 ft | 1 kts | 147° |
| 2026-05-04 13:05 | 37.46402 | 126.43512 | 34 ft | 0 kts | 146° |
| 2026-05-04 13:08 | 37.46400 | 126.43513 | 38 ft | 1 kts | 146° |
| 2026-05-04 13:08 | 37.46387 | 126.43525 | 38 ft | 4 kts | 144° |
| 2026-05-04 13:08 | 37.46359 | 126.43550 | 38 ft | 6 kts | 145° |
| 2026-05-04 13:09 | 37.46318 | 126.43586 | 38 ft | 8 kts | 145° |
| 2026-05-04 13:09 | 37.46264 | 126.43634 | 38 ft | 11 kts | 144° |
| 2026-05-04 13:09 | 37.46199 | 126.43692 | 38 ft | 12 kts | 145° |
| 2026-05-04 13:09 | 37.46153 | 126.43773 | 38 ft | 10 kts | 88° |
| 2026-05-04 13:10 | 37.46185 | 126.43851 | 38 ft | 11 kts | 55° |
| 2026-05-04 13:10 | 37.46231 | 126.43936 | 38 ft | 13 kts | 53° |
| 2026-05-04 13:10 | 37.46286 | 126.44032 | 37 ft | 14 kts | 54° |
| 2026-05-04 13:10 | 37.46347 | 126.44142 | 37 ft | 16 kts | 54° |
| 2026-05-04 13:11 | 37.46417 | 126.44265 | 37 ft | 18 kts | 54° |
| 2026-05-04 13:11 | 37.46492 | 126.44399 | 37 ft | 17 kts | 56° |
| 2026-05-04 13:11 | 37.46552 | 126.44521 | 37 ft | 16 kts | 59° |
| 2026-05-04 13:11 | 37.46583 | 126.44617 | 37 ft | 10 kts | 105° |
| 2026-05-04 13:12 | 37.46529 | 126.44683 | 37 ft | 12 kts | 142° |
| 2026-05-04 13:12 | 37.46460 | 126.44746 | 37 ft | 13 kts | 144° |
| 2026-05-04 13:12 | 37.46378 | 126.44820 | 37 ft | 15 kts | 144° |
| 2026-05-04 13:12 | 37.46287 | 126.44901 | 37 ft | 17 kts | 146° |
| 2026-05-04 13:13 | 37.46186 | 126.44988 | 37 ft | 19 kts | 146° |
| 2026-05-04 13:13 | 37.46078 | 126.45085 | 37 ft | 19 kts | 144° |
| 2026-05-04 13:13 | 37.45967 | 126.45184 | 37 ft | 20 kts | 144° |
| 2026-05-04 13:13 | 37.45849 | 126.45290 | 37 ft | 22 kts | 144° |
| 2026-05-04 13:14 | 37.45722 | 126.45401 | 37 ft | 23 kts | 146° |
| 2026-05-04 13:14 | 37.45603 | 126.45508 | 37 ft | 18 kts | 144° |
| 2026-05-04 13:14 | 37.45510 | 126.45593 | 37 ft | 17 kts | 144° |
| 2026-05-04 13:14 | 37.45410 | 126.45681 | 37 ft | 17 kts | 147° |
| 2026-05-04 13:15 | 37.45325 | 126.45756 | 37 ft | 12 kts | 142° |
| 2026-05-04 13:15 | 37.45300 | 126.45824 | 37 ft | 5 kts | 81° |
| 2026-05-04 13:15 | 37.45310 | 126.45858 | 36 ft | 0 kts | 63° |
| 2026-05-04 13:15 | 37.45317 | 126.45873 | 36 ft | 5 kts | 61° |
| 2026-05-04 13:16 | 37.45353 | 126.45942 | 37 ft | 14 kts | 55° |
| 2026-05-04 13:16 | 37.45414 | 126.46044 | 37 ft | 14 kts | 43° |
| 2026-05-04 13:16 | 37.45488 | 126.46031 | 37 ft | 0 kts | 324° |
| 2026-05-04 13:18 | 37.45559 | 126.45966 | 37 ft | 32 kts | 324° |
| 2026-05-04 13:18 | 37.45962 | 126.45608 | 37 ft | 114 kts | 324° |
| 2026-05-04 13:18 | 37.46799 | 126.44837 | 133 ft | 171 kts | 322° |
| 2026-05-04 13:19 | 37.47787 | 126.43962 | 902 ft | 175 kts | 322° |
| 2026-05-04 13:19 | 37.48763 | 126.43110 | 1933 ft | 168 kts | 322° |
| 2026-05-04 13:19 | 37.49781 | 126.42240 | 2468 ft | 188 kts | 321° |
| 2026-05-04 13:19 | 37.50959 | 126.41246 | 2784 ft | 218 kts | 324° |
| 2026-05-04 13:20 | 37.52273 | 126.40205 | 3502 ft | 227 kts | 325° |
| 2026-05-04 13:20 | 37.53617 | 126.39140 | 4330 ft | 232 kts | 326° |
| 2026-05-04 13:20 | 37.54989 | 126.38044 | 5136 ft | 234 kts | 326° |
| 2026-05-04 13:20 | 37.56437 | 126.37060 | 5501 ft | 241 kts | 338° |
| 2026-05-04 13:21 | 37.58068 | 126.36437 | 5499 ft | 246 kts | 343° |
| 2026-05-04 13:21 | 37.59715 | 126.35894 | 5494 ft | 243 kts | 343° |
| 2026-05-04 13:21 | 37.61347 | 126.35361 | 5482 ft | 239 kts | 347° |
| 2026-05-04 13:21 | 37.63004 | 126.35469 | 5493 ft | 245 kts | 17° |
| 2026-05-04 13:22 | 37.64466 | 126.36662 | 5609 ft | 264 kts | 46° |
| 2026-05-04 13:22 | 37.65413 | 126.38662 | 6326 ft | 276 kts | 66° |
| 2026-05-04 13:22 | 37.66077 | 126.40968 | 7180 ft | 282 kts | 70° |
| 2026-05-04 13:22 | 37.66687 | 126.43326 | 8097 ft | 283 kts | 75° |
| 2026-05-04 13:23 | 37.66716 | 126.45827 | 8853 ft | 293 kts | 104° |
| 2026-05-04 13:23 | 37.66038 | 126.48255 | 9694 ft | 295 kts | 109° |
| 2026-05-04 13:23 | 37.65312 | 126.50715 | 10448 ft | 304 kts | 109° |
| 2026-05-04 13:23 | 37.64549 | 126.53313 | 10772 ft | 329 kts | 111° |
| 2026-05-04 13:24 | 37.63312 | 126.55851 | 10942 ft | 354 kts | 133° |
| 2026-05-04 13:24 | 37.61431 | 126.58028 | 11217 ft | 378 kts | 139° |
| 2026-05-04 13:24 | 37.59417 | 126.60240 | 11998 ft | 389 kts | 139° |
| 2026-05-04 13:25 | 37.55292 | 126.64833 | 14170 ft | 400 kts | 138° |
| 2026-05-04 13:25 | 37.53233 | 126.67163 | 15136 ft | 406 kts | 137° |
| 2026-05-04 13:25 | 37.51118 | 126.69571 | 16099 ft | 412 kts | 137° |
| 2026-05-04 13:25 | 37.48975 | 126.72017 | 17043 ft | 419 kts | 137° |
| 2026-05-04 13:26 | 37.46794 | 126.74505 | 17997 ft | 425 kts | 137° |
| 2026-05-04 13:26 | 37.44585 | 126.77021 | 18858 ft | 430 kts | 136° |
| 2026-05-04 13:26 | 37.42626 | 126.79859 | 19463 ft | 434 kts | 119° |
| 2026-05-04 13:26 | 37.41483 | 126.83383 | 20197 ft | 438 kts | 102° |
| 2026-05-04 13:27 | 37.41188 | 126.87172 | 21061 ft | 436 kts | 87° |
| 2026-05-04 13:27 | 37.41272 | 126.91015 | 21837 ft | 441 kts | 86° |
| 2026-05-04 13:27 | 37.41501 | 126.94831 | 22536 ft | 445 kts | 79° |
| 2026-05-04 13:27 | 37.42086 | 126.98671 | 23228 ft | 450 kts | 75° |
| 2026-05-04 13:28 | 37.42787 | 127.02527 | 23944 ft | 454 kts | 74° |
| 2026-05-04 13:28 | 37.43509 | 127.06432 | 24575 ft | 460 kts | 75° |
| 2026-05-04 13:28 | 37.44216 | 127.10391 | 25081 ft | 465 kts | 75° |
| 2026-05-04 13:28 | 37.44903 | 127.14409 | 25088 ft | 470 kts | 76° |
| 2026-05-04 13:29 | 37.45565 | 127.18431 | 25101 ft | 468 kts | 76° |
| 2026-05-04 13:29 | 37.46202 | 127.22383 | 25091 ft | 466 kts | 76° |
| 2026-05-04 13:29 | 37.46845 | 127.26382 | 25093 ft | 466 kts | 76° |
| 2026-05-04 13:29 | 37.47490 | 127.30387 | 25096 ft | 467 kts | 76° |
| 2026-05-04 13:30 | 37.48138 | 127.34405 | 25094 ft | 467 kts | 76° |
| 2026-05-04 13:30 | 37.48786 | 127.38429 | 25266 ft | 470 kts | 76° |
| 2026-05-04 13:30 | 37.49444 | 127.42489 | 25859 ft | 475 kts | 76° |
| 2026-05-04 13:30 | 37.50110 | 127.46591 | 26474 ft | 479 kts | 76° |
| 2026-05-04 13:31 | 37.50781 | 127.50730 | 27031 ft | 485 kts | 76° |
| 2026-05-04 13:31 | 37.51459 | 127.54925 | 27537 ft | 491 kts | 76° |
| 2026-05-04 13:31 | 37.52140 | 127.59157 | 28023 ft | 495 kts | 77° |
| 2026-05-04 13:31 | 37.52569 | 127.63487 | 28479 ft | 503 kts | 86° |
| 2026-05-04 13:32 | 37.52415 | 127.67869 | 28936 ft | 510 kts | 96° |
| 2026-05-04 13:32 | 37.51737 | 127.72292 | 29395 ft | 515 kts | 105° |
| 2026-05-04 13:32 | 37.50573 | 127.76566 | 29790 ft | 519 kts | 110° |
| 2026-05-04 13:32 | 37.49294 | 127.80840 | 30153 ft | 523 kts | 111° |
| 2026-05-04 13:33 | 37.47988 | 127.85127 | 30562 ft | 525 kts | 111° |
| 2026-05-04 13:33 | 37.46680 | 127.89438 | 31040 ft | 525 kts | 111° |
| 2026-05-04 13:33 | 37.45392 | 127.93736 | 31520 ft | 525 kts | 111° |
| 2026-05-04 13:33 | 37.44125 | 127.98018 | 31917 ft | 527 kts | 111° |
| 2026-05-04 13:34 | 37.42855 | 128.02350 | 32338 ft | 528 kts | 111° |
| 2026-05-04 13:34 | 37.41585 | 128.06700 | 32760 ft | 529 kts | 111° |
| 2026-05-04 13:34 | 37.40316 | 128.11055 | 33186 ft | 530 kts | 112° |
| 2026-05-04 13:34 | 37.39058 | 128.15363 | 33578 ft | 531 kts | 112° |
| 2026-05-04 13:35 | 37.37782 | 128.19725 | 34015 ft | 531 kts | 112° |
| 2026-05-04 13:35 | 37.35222 | 128.28445 | 34742 ft | 532 kts | 112° |
| 2026-05-04 13:35 | 37.33936 | 128.32812 | 35069 ft | 533 kts | 112° |
| 2026-05-04 13:36 | 37.32641 | 128.37195 | 35389 ft | 534 kts | 113° |
| 2026-05-04 13:36 | 37.31348 | 128.41567 | 35727 ft | 534 kts | 113° |
| 2026-05-04 13:36 | 37.30182 | 128.45503 | 36013 ft | 535 kts | 113° |
| 2026-05-04 13:36 | 37.28882 | 128.49889 | 36327 ft | 536 kts | 113° |
| 2026-05-04 13:37 | 37.27577 | 128.54282 | 36643 ft | 537 kts | 113° |
| 2026-05-04 13:37 | 37.26283 | 128.58633 | 36947 ft | 538 kts | 114° |
| 2026-05-04 13:37 | 37.24965 | 128.63056 | 37054 ft | 543 kts | 114° |
| 2026-05-04 13:38 | 37.22301 | 128.71970 | 37091 ft | 544 kts | 114° |
| 2026-05-04 13:38 | 37.19652 | 128.80820 | 37274 ft | 541 kts | 114° |
| 2026-05-04 13:38 | 37.18329 | 128.85227 | 37700 ft | 539 kts | 114° |
| 2026-05-04 13:39 | 37.17006 | 128.89631 | 38081 ft | 538 kts | 114° |
| 2026-05-04 13:39 | 37.15683 | 128.94023 | 38374 ft | 540 kts | 114° |
| 2026-05-04 13:39 | 37.14364 | 128.98386 | 38586 ft | 542 kts | 114° |
| 2026-05-04 13:39 | 37.13028 | 129.02800 | 38847 ft | 542 kts | 115° |
| 2026-05-04 13:40 | 37.11688 | 129.07228 | 39026 ft | 543 kts | 115° |
| 2026-05-04 13:40 | 37.08995 | 129.16099 | 39072 ft | 542 kts | 115° |
| 2026-05-04 13:41 | 37.06327 | 129.24875 | 39059 ft | 542 kts | 115° |
| 2026-05-04 13:41 | 37.03634 | 129.33698 | 39085 ft | 542 kts | 115° |
| 2026-05-04 13:42 | 36.99577 | 129.46931 | 39075 ft | 544 kts | 115° |
| 2026-05-04 13:42 | 36.96852 | 129.55783 | 39073 ft | 545 kts | 115° |
| 2026-05-04 13:43 | 36.94137 | 129.64578 | 39074 ft | 545 kts | 115° |
| 2026-05-04 13:43 | 36.91396 | 129.73432 | 39072 ft | 546 kts | 116° |
| 2026-05-04 13:44 | 36.88644 | 129.82289 | 39080 ft | 546 kts | 116° |
| 2026-05-04 13:44 | 36.85883 | 129.91151 | 39076 ft | 547 kts | 116° |
| 2026-05-04 13:45 | 36.83118 | 129.99998 | 39076 ft | 547 kts | 116° |
| 2026-05-04 13:45 | 36.80349 | 130.08831 | 39081 ft | 547 kts | 116° |
| 2026-05-04 13:46 | 36.77586 | 130.17617 | 39083 ft | 547 kts | 116° |
| 2026-05-04 13:46 | 36.74799 | 130.26451 | 39085 ft | 547 kts | 116° |
| 2026-05-04 13:47 | 36.72004 | 130.35287 | 39088 ft | 547 kts | 117° |
| 2026-05-04 13:47 | 36.69676 | 130.42623 | 39087 ft | 547 kts | 117° |
| 2026-05-04 13:48 | 36.66865 | 130.51456 | 39088 ft | 548 kts | 117° |
| 2026-05-04 13:48 | 36.64066 | 130.60227 | 39089 ft | 548 kts | 117° |
| 2026-05-04 13:49 | 36.61238 | 130.69060 | 39088 ft | 549 kts | 117° |
| 2026-05-04 13:49 | 36.58404 | 130.77887 | 39089 ft | 549 kts | 117° |
| 2026-05-04 13:50 | 36.55556 | 130.86729 | 39089 ft | 550 kts | 117° |
| 2026-05-04 13:50 | 36.52702 | 130.95565 | 39089 ft | 551 kts | 117° |
| 2026-05-04 13:51 | 36.49852 | 131.04360 | 39089 ft | 551 kts | 118° |
| 2026-05-04 13:51 | 36.46981 | 131.13194 | 39091 ft | 552 kts | 118° |
| 2026-05-04 13:52 | 36.42650 | 131.26472 | 39090 ft | 552 kts | 118° |
| 2026-05-04 13:53 | 36.39744 | 131.35348 | 39102 ft | 558 kts | 118° |
| 2026-05-04 13:53 | 36.36805 | 131.44319 | 39102 ft | 564 kts | 117° |
| 2026-05-04 13:54 | 36.32802 | 131.58128 | 39100 ft | 571 kts | 115° |
| 2026-05-04 13:55 | 36.28925 | 131.72017 | 39091 ft | 570 kts | 115° |
| 2026-05-04 13:55 | 36.24932 | 131.85880 | 39092 ft | 566 kts | 116° |
| 2026-05-04 13:56 | 36.22265 | 131.95044 | 39093 ft | 564 kts | 116° |
| 2026-05-04 13:57 | 36.18273 | 132.08736 | 39094 ft | 562 kts | 116° |
| 2026-05-04 13:58 | 36.12965 | 132.26858 | 39103 ft | 562 kts | 117° |
| 2026-05-04 13:58 | 36.08942 | 132.40511 | 39101 ft | 563 kts | 117° |
| 2026-05-04 13:59 | 36.06253 | 132.49602 | 39101 ft | 564 kts | 117° |
| 2026-05-04 14:00 | 36.02197 | 132.63259 | 39105 ft | 565 kts | 117° |
| 2026-05-04 14:00 | 35.98138 | 132.76867 | 39108 ft | 566 kts | 117° |
| 2026-05-04 14:01 | 35.95403 | 132.85994 | 39106 ft | 566 kts | 118° |
| 2026-05-04 14:02 | 35.91287 | 132.99673 | 39102 ft | 567 kts | 118° |
| 2026-05-04 14:02 | 35.88532 | 133.08796 | 39102 ft | 567 kts | 118° |
| 2026-05-04 14:03 | 35.85788 | 133.17855 | 39105 ft | 568 kts | 118° |
| 2026-05-04 14:03 | 35.83019 | 133.26963 | 39106 ft | 568 kts | 118° |
| 2026-05-04 14:04 | 35.78836 | 133.40673 | 39105 ft | 568 kts | 118° |
| 2026-05-04 14:04 | 35.76063 | 133.49722 | 39105 ft | 569 kts | 118° |
| 2026-05-04 14:05 | 35.71861 | 133.63385 | 39107 ft | 569 kts | 118° |
| 2026-05-04 14:06 | 35.69048 | 133.72493 | 39103 ft | 569 kts | 118° |
| 2026-05-04 14:06 | 35.66227 | 133.81604 | 39101 ft | 569 kts | 119° |
| 2026-05-04 14:07 | 35.63403 | 133.90693 | 39108 ft | 569 kts | 119° |
| 2026-05-04 14:07 | 35.60569 | 133.99785 | 39100 ft | 569 kts | 119° |
| 2026-05-04 14:08 | 35.57750 | 134.08799 | 39097 ft | 568 kts | 119° |
| 2026-05-04 14:08 | 35.54910 | 134.17855 | 39092 ft | 567 kts | 120° |
| 2026-05-04 14:09 | 35.50649 | 134.31393 | 39091 ft | 566 kts | 120° |
| 2026-05-04 14:10 | 35.46725 | 134.43793 | 39100 ft | 565 kts | 120° |
| 2026-05-04 14:10 | 35.43898 | 134.52703 | 39102 ft | 563 kts | 120° |
| 2026-05-04 14:11 | 35.41042 | 134.61677 | 39117 ft | 563 kts | 120° |
| 2026-05-04 14:11 | 35.36745 | 134.75119 | 39099 ft | 564 kts | 121° |
| 2026-05-04 14:12 | 35.33897 | 134.84000 | 39093 ft | 563 kts | 121° |
| 2026-05-04 14:13 | 35.29582 | 134.97406 | 39090 ft | 563 kts | 121° |
| 2026-05-04 14:13 | 35.26715 | 135.06275 | 39093 ft | 563 kts | 121° |
| 2026-05-04 14:14 | 35.23827 | 135.15180 | 39087 ft | 563 kts | 121° |
| 2026-05-04 14:14 | 35.19474 | 135.28562 | 39090 ft | 564 kts | 121° |
| 2026-05-04 14:15 | 35.13652 | 135.46360 | 39077 ft | 566 kts | 121° |
| 2026-05-04 14:16 | 35.09247 | 135.59772 | 39064 ft | 567 kts | 121° |
| 2026-05-04 14:17 | 35.04824 | 135.73170 | 39047 ft | 566 kts | 121° |
| 2026-05-04 14:18 | 35.00890 | 135.86770 | 39048 ft | 578 kts | 110° |
| 2026-05-04 14:19 | 34.97864 | 136.06113 | 39049 ft | 579 kts | 109° |
| 2026-05-04 14:19 | 34.96320 | 136.15727 | 39039 ft | 577 kts | 109° |
| 2026-05-04 14:20 | 34.94749 | 136.25227 | 39021 ft | 572 kts | 110° |
| 2026-05-04 14:20 | 34.93178 | 136.34693 | 39018 ft | 567 kts | 110° |
| 2026-05-04 14:21 | 34.90831 | 136.48768 | 39013 ft | 564 kts | 110° |
| 2026-05-04 14:21 | 34.89258 | 136.58159 | 39015 ft | 565 kts | 110° |
| 2026-05-04 14:22 | 34.87688 | 136.67526 | 39023 ft | 568 kts | 110° |
| 2026-05-04 14:22 | 34.86103 | 136.76989 | 39023 ft | 571 kts | 110° |
| 2026-05-04 14:23 | 34.83715 | 136.91174 | 39018 ft | 573 kts | 110° |
| 2026-05-04 14:24 | 34.82342 | 137.00791 | 39013 ft | 579 kts | 106° |
| 2026-05-04 14:24 | 34.81298 | 137.10523 | 38992 ft | 580 kts | 105° |
| 2026-05-04 14:25 | 34.80268 | 137.20244 | 38971 ft | 578 kts | 105° |
| 2026-05-04 14:25 | 34.78640 | 137.34756 | 38950 ft | 575 kts | 106° |
| 2026-05-04 14:26 | 34.77538 | 137.44365 | 38949 ft | 573 kts | 106° |
| 2026-05-04 14:26 | 34.76435 | 137.53962 | 38948 ft | 572 kts | 106° |
| 2026-05-04 14:27 | 34.75337 | 137.63481 | 38928 ft | 571 kts | 106° |
| 2026-05-04 14:27 | 34.74266 | 137.73077 | 38926 ft | 572 kts | 105° |
| 2026-05-04 14:28 | 34.73364 | 137.82720 | 38915 ft | 573 kts | 104° |
| 2026-05-04 14:28 | 34.72459 | 137.92357 | 38903 ft | 573 kts | 104° |
| 2026-05-04 14:29 | 34.71534 | 138.01939 | 38330 ft | 579 kts | 103° |
| 2026-05-04 14:29 | 34.71304 | 138.11865 | 37551 ft | 589 kts | 96° |
| 2026-05-04 14:30 | 34.71366 | 138.16830 | 37310 ft | 587 kts | 95° |
| 2026-05-04 14:30 | 34.71440 | 138.21792 | 37050 ft | 586 kts | 96° |
| 2026-05-04 14:30 | 34.71540 | 138.31671 | 36412 ft | 584 kts | 97° |
| 2026-05-04 14:31 | 34.71562 | 138.36540 | 36071 ft | 584 kts | 97° |
| 2026-05-04 14:31 | 34.71579 | 138.46465 | 35426 ft | 582 kts | 97° |
| 2026-05-04 14:32 | 34.71590 | 138.56291 | 34769 ft | 577 kts | 98° |
| 2026-05-04 14:32 | 34.71602 | 138.61111 | 33951 ft | 566 kts | 98° |
| 2026-05-04 14:32 | 34.71606 | 138.65912 | 32302 ft | 570 kts | 98° |
| 2026-05-04 14:32 | 34.71600 | 138.70705 | 30401 ft | 578 kts | 97° |
| 2026-05-04 14:33 | 34.71595 | 138.75626 | 28350 ft | 585 kts | 96° |
| 2026-05-04 14:33 | 34.71598 | 138.80548 | 26901 ft | 576 kts | 96° |
| 2026-05-04 14:33 | 34.71595 | 138.85356 | 25835 ft | 560 kts | 96° |
| 2026-05-04 14:33 | 34.71574 | 138.90026 | 24738 ft | 546 kts | 97° |
| 2026-05-04 14:34 | 34.71542 | 138.94594 | 23633 ft | 535 kts | 96° |
| 2026-05-04 14:34 | 34.71516 | 138.99057 | 22816 ft | 514 kts | 96° |
| 2026-05-04 14:34 | 34.71496 | 139.03282 | 22217 ft | 489 kts | 96° |
| 2026-05-04 14:34 | 34.71469 | 139.07415 | 21680 ft | 490 kts | 96° |
| 2026-05-04 14:35 | 34.71435 | 139.11589 | 21102 ft | 497 kts | 95° |
| 2026-05-04 14:35 | 34.71398 | 139.15825 | 20513 ft | 503 kts | 95° |
| 2026-05-04 14:35 | 34.71367 | 139.20072 | 19896 ft | 500 kts | 95° |
| 2026-05-04 14:35 | 34.71338 | 139.24287 | 19300 ft | 497 kts | 94° |
| 2026-05-04 14:36 | 34.71309 | 139.28419 | 18696 ft | 492 kts | 94° |
| 2026-05-04 14:36 | 34.71278 | 139.32563 | 18091 ft | 488 kts | 94° |
| 2026-05-04 14:36 | 34.71244 | 139.36676 | 17404 ft | 475 kts | 94° |
| 2026-05-04 14:36 | 34.71427 | 139.40561 | 16771 ft | 448 kts | 80° |
| 2026-05-04 14:37 | 34.71954 | 139.42940 | 16332 ft | 432 kts | 69° |
| 2026-05-04 14:37 | 34.73281 | 139.46139 | 15251 ft | 418 kts | 52° |
| 2026-05-04 14:37 | 34.75142 | 139.48825 | 13969 ft | 419 kts | 39° |
| 2026-05-04 14:37 | 34.77448 | 139.50977 | 13019 ft | 408 kts | 26° |
| 2026-05-04 14:38 | 34.79852 | 139.52691 | 11819 ft | 395 kts | 24° |
| 2026-05-04 14:38 | 34.83018 | 139.54855 | 11154 ft | 394 kts | 24° |
| 2026-05-04 14:38 | 34.84632 | 139.55957 | 10952 ft | 389 kts | 24° |
| 2026-05-04 14:38 | 34.86907 | 139.57533 | 10766 ft | 359 kts | 24° |
| 2026-05-04 14:39 | 34.88972 | 139.58986 | 10601 ft | 326 kts | 24° |
| 2026-05-04 14:39 | 34.90860 | 139.60320 | 10479 ft | 307 kts | 24° |
| 2026-05-04 14:39 | 34.92665 | 139.61588 | 10369 ft | 298 kts | 24° |
| 2026-05-04 14:40 | 34.96161 | 139.64050 | 10126 ft | 282 kts | 24° |
| 2026-05-04 14:40 | 34.97905 | 139.65098 | 9666 ft | 284 kts | 14° |
| 2026-05-04 14:40 | 34.99797 | 139.65838 | 9262 ft | 286 kts | 11° |
| 2026-05-04 14:40 | 35.01708 | 139.66508 | 8910 ft | 285 kts | 11° |
| 2026-05-04 14:41 | 35.03581 | 139.67168 | 8695 ft | 279 kts | 12° |
| 2026-05-04 14:41 | 35.05392 | 139.67827 | 8417 ft | 259 kts | 12° |
| 2026-05-04 14:41 | 35.08759 | 139.69077 | 7643 ft | 249 kts | 14° |
| 2026-05-04 14:42 | 35.11988 | 139.70297 | 7259 ft | 246 kts | 14° |
| 2026-05-04 14:42 | 35.13632 | 139.70922 | 6993 ft | 248 kts | 14° |
| 2026-05-04 14:42 | 35.15287 | 139.71555 | 6727 ft | 248 kts | 14° |
| 2026-05-04 14:43 | 35.16936 | 139.72188 | 6453 ft | 247 kts | 14° |
| 2026-05-04 14:43 | 35.18573 | 139.72817 | 6181 ft | 246 kts | 14° |
| 2026-05-04 14:43 | 35.20175 | 139.73435 | 5901 ft | 244 kts | 14° |
| 2026-05-04 14:43 | 35.21788 | 139.74057 | 5629 ft | 242 kts | 14° |
| 2026-05-04 14:44 | 35.23388 | 139.74674 | 5359 ft | 239 kts | 14° |
| 2026-05-04 14:44 | 35.24966 | 139.75282 | 5086 ft | 237 kts | 14° |
| 2026-05-04 14:44 | 35.26532 | 139.75885 | 4839 ft | 234 kts | 14° |
| 2026-05-04 14:44 | 35.28074 | 139.76480 | 4576 ft | 231 kts | 14° |
| 2026-05-04 14:45 | 35.29599 | 139.77068 | 4311 ft | 227 kts | 14° |
| 2026-05-04 14:45 | 35.31078 | 139.77640 | 4059 ft | 224 kts | 14° |
| 2026-05-04 14:45 | 35.32522 | 139.78356 | 3803 ft | 220 kts | 23° |
| 2026-05-04 14:45 | 35.33835 | 139.79252 | 3571 ft | 217 kts | 25° |
| 2026-05-04 14:46 | 35.35104 | 139.80147 | 3416 ft | 201 kts | 24° |
| 2026-05-04 14:46 | 35.36290 | 139.80976 | 3330 ft | 196 kts | 23° |
| 2026-05-04 14:46 | 35.37486 | 139.81799 | 3301 ft | 197 kts | 23° |
| 2026-05-04 14:46 | 35.38685 | 139.82618 | 3188 ft | 196 kts | 22° |
| 2026-05-04 14:47 | 35.39849 | 139.83413 | 3074 ft | 186 kts | 22° |
| 2026-05-04 14:47 | 35.40937 | 139.84154 | 2890 ft | 174 kts | 22° |
| 2026-05-04 14:47 | 35.41944 | 139.84841 | 2725 ft | 162 kts | 21° |
| 2026-05-04 14:47 | 35.42949 | 139.85519 | 2562 ft | 166 kts | 21° |
| 2026-05-04 14:48 | 35.43945 | 139.86173 | 2321 ft | 155 kts | 14° |
| 2026-05-04 14:48 | 35.44910 | 139.86214 | 2120 ft | 129 kts | 342° |
| 2026-05-04 14:48 | 35.45739 | 139.85909 | 1890 ft | 119 kts | 339° |
| 2026-05-04 14:48 | 35.46469 | 139.85554 | 1774 ft | 110 kts | 336° |
| 2026-05-04 14:49 | 35.47169 | 139.85180 | 1620 ft | 110 kts | 336° |
| 2026-05-04 14:49 | 35.47871 | 139.84780 | 1461 ft | 112 kts | 334° |
| 2026-05-04 14:49 | 35.48561 | 139.84325 | 1331 ft | 112 kts | 331° |
| 2026-05-04 14:49 | 35.49236 | 139.83856 | 1163 ft | 112 kts | 332° |
| 2026-05-04 14:50 | 35.49916 | 139.83379 | 1007 ft | 113 kts | 332° |
| 2026-05-04 14:50 | 35.50601 | 139.82878 | 860 ft | 116 kts | 328° |
| 2026-05-04 14:50 | 35.51324 | 139.82381 | 710 ft | 121 kts | 327° |
| 2026-05-04 14:50 | 35.52066 | 139.81838 | 539 ft | 125 kts | 328° |
| 2026-05-04 14:51 | 35.52819 | 139.81331 | 399 ft | 128 kts | 329° |
| 2026-05-04 14:51 | 35.53590 | 139.80789 | 237 ft | 126 kts | 329° |
| 2026-05-04 14:51 | 35.54335 | 139.80253 | 64 ft | 121 kts | 327° |
| 2026-05-04 14:51 | 35.55009 | 139.79767 | 35 ft | 97 kts | 334° |
| 2026-05-04 14:52 | 35.55436 | 139.79473 | 32 ft | 44 kts | 329° |
| 2026-05-04 14:52 | 35.55633 | 139.79327 | 32 ft | 30 kts | 326° |
| 2026-05-04 14:52 | 35.55772 | 139.79143 | 29 ft | 29 kts | 304° |
| 2026-05-04 14:52 | 35.55868 | 139.78943 | 28 ft | 22 kts | 300° |
| 2026-05-04 14:53 | 35.55976 | 139.78836 | 29 ft | 19 kts | 329° |
| 2026-05-04 14:53 | 35.56090 | 139.78754 | 29 ft | 19 kts | 329° |
| 2026-05-04 14:53 | 35.56205 | 139.78672 | 29 ft | 19 kts | 331° |
| 2026-05-04 14:53 | 35.56320 | 139.78593 | 30 ft | 19 kts | 322° |
| 2026-05-04 14:54 | 35.56377 | 139.78549 | 30 ft | 7 kts | 329° |
| 2026-05-04 14:54 | 35.56387 | 139.78491 | 30 ft | 8 kts | 250° |
| 2026-05-04 14:54 | 35.56359 | 139.78423 | 30 ft | 10 kts | 243° |
| 2026-05-04 14:54 | 35.56312 | 139.78318 | 30 ft | 16 kts | 240° |
| 2026-05-04 14:55 | 35.56249 | 139.78188 | 29 ft | 19 kts | 240° |
| 2026-05-04 14:55 | 35.56182 | 139.78043 | 30 ft | 21 kts | 240° |
| 2026-05-04 14:55 | 35.56106 | 139.77887 | 30 ft | 22 kts | 240° |
| 2026-05-04 14:55 | 35.56026 | 139.77718 | 29 ft | 24 kts | 239° |
| 2026-05-04 14:56 | 35.55942 | 139.77539 | 28 ft | 23 kts | 240° |
| 2026-05-04 14:56 | 35.55859 | 139.77370 | 28 ft | 20 kts | 236° |
| 2026-05-04 14:56 | 35.55743 | 139.77254 | 29 ft | 22 kts | 216° |
| 2026-05-04 14:56 | 35.55617 | 139.77144 | 29 ft | 23 kts | 214° |
| 2026-05-04 14:57 | 35.55488 | 139.77042 | 29 ft | 16 kts | 201° |
| 2026-05-04 14:57 | 35.55390 | 139.77080 | 31 ft | 14 kts | 146° |
| 2026-05-04 14:57 | 35.55306 | 139.77143 | 27 ft | 15 kts | 149° |
| 2026-05-04 14:57 | 35.55221 | 139.77198 | 27 ft | 11 kts | 168° |
| 2026-05-04 14:58 | 35.55182 | 139.77169 | 28 ft | 7 kts | 229° |
| 2026-05-04 14:58 | 35.55155 | 139.77122 | 29 ft | 7 kts | 238° |
| 2026-05-04 14:58 | 35.55127 | 139.77065 | 27 ft | 10 kts | 240° |
| 2026-05-04 14:58 | 35.55091 | 139.76987 | 27 ft | 11 kts | 240° |
| 2026-05-04 14:59 | 35.55052 | 139.76906 | 27 ft | 12 kts | 240° |
| 2026-05-04 14:59 | 35.55009 | 139.76817 | 27 ft | 12 kts | 238° |
| 2026-05-04 14:59 | 35.54926 | 139.76724 | 27 ft | 8 kts | 155° |
| 2026-05-04 15:00 | 35.54899 | 139.76740 | 28 ft | 2 kts | 150° |
| 2026-05-04 15:00 | 35.54892 | 139.76745 | 28 ft | 1 kts | 150° |